sensor_id;sensor_type;location;lat;lon;timestamp;P1;durP1;ratioP1;P2;durP2;ratioP2
40945;SDS011;55635;50.264;11.918;2022-11-12T00:01:43;17.83;;;10.65;;
40945;SDS011;55635;50.264;11.918;2022-11-12T00:04:43;15.85;;;9.82;;
40945;SDS011;55635;50.264;11.918;2022-11-12T00:07:42;15.95;;;9.75;;
40945;SDS011;55635;50.264;11.918;2022-11-12T00:10:42;15.07;;;9.88;;
40945;SDS011;55635;50.264;11.918;2022-11-12T00:13:42;15.43;;;10.27;;
40945;SDS011;55635;50.264;11.918;2022-11-12T00:16:42;14.00;;;9.90;;
40945;SDS011;55635;50.264;11.918;2022-11-12T00:19:41;14.57;;;9.25;;
40945;SDS011;55635;50.264;11.918;2022-11-12T00:22:40;15.00;;;9.27;;
40945;SDS011;55635;50.264;11.918;2022-11-12T00:25:40;14.88;;;9.30;;
40945;SDS011;55635;50.264;11.918;2022-11-12T00:28:39;12.80;;;8.35;;
40945;SDS011;55635;50.264;11.918;2022-11-12T00:31:39;13.45;;;8.35;;
40945;SDS011;55635;50.264;11.918;2022-11-12T00:34:39;13.00;;;8.90;;
40945;SDS011;55635;50.264;11.918;2022-11-12T00:37:38;13.57;;;9.55;;
40945;SDS011;55635;50.264;11.918;2022-11-12T00:40:37;10.65;;;8.30;;
40945;SDS011;55635;50.264;11.918;2022-11-12T00:43:40;12.52;;;8.13;;
40945;SDS011;55635;50.264;11.918;2022-11-12T00:46:39;13.60;;;9.02;;
40945;SDS011;55635;50.264;11.918;2022-11-12T00:49:39;14.75;;;9.13;;
40945;SDS011;55635;50.264;11.918;2022-11-12T00:52:38;12.07;;;8.57;;
40945;SDS011;55635;50.264;11.918;2022-11-12T00:55:38;14.93;;;9.63;;
40945;SDS011;55635;50.264;11.918;2022-11-12T00:58:37;13.10;;;8.82;;
40945;SDS011;55635;50.264;11.918;2022-11-12T01:01:37;17.10;;;9.70;;
40945;SDS011;55635;50.264;11.918;2022-11-12T01:04:37;15.38;;;9.93;;
40945;SDS011;55635;50.264;11.918;2022-11-12T01:07:36;12.85;;;8.23;;
40945;SDS011;55635;50.264;11.918;2022-11-12T01:10:36;10.75;;;8.25;;
40945;SDS011;55635;50.264;11.918;2022-11-12T01:13:36;13.70;;;8.82;;
40945;SDS011;55635;50.264;11.918;2022-11-12T01:16:38;12.95;;;7.97;;
40945;SDS011;55635;50.264;11.918;2022-11-12T01:19:38;11.30;;;8.18;;
40945;SDS011;55635;50.264;11.918;2022-11-12T01:22:38;13.18;;;9.13;;
40945;SDS011;55635;50.264;11.918;2022-11-12T01:25:37;14.45;;;8.77;;
40945;SDS011;55635;50.264;11.918;2022-11-12T01:28:36;12.65;;;8.30;;
40945;SDS011;55635;50.264;11.918;2022-11-12T01:31:36;9.82;;;7.72;;
40945;SDS011;55635;50.264;11.918;2022-11-12T01:34:36;11.43;;;8.23;;
40945;SDS011;55635;50.264;11.918;2022-11-12T01:37:36;13.50;;;8.55;;
40945;SDS011;55635;50.264;11.918;2022-11-12T01:40:35;9.57;;;7.70;;
40945;SDS011;55635;50.264;11.918;2022-11-12T01:43:38;12.25;;;7.57;;
40945;SDS011;55635;50.264;11.918;2022-11-12T01:46:40;11.63;;;7.63;;
40945;SDS011;55635;50.264;11.918;2022-11-12T01:50:30;9.05;;;6.65;;
40945;SDS011;55635;50.264;11.918;2022-11-12T01:53:33;10.88;;;8.13;;
40945;SDS011;55635;50.264;11.918;2022-11-12T01:56:37;12.30;;;8.57;;
40945;SDS011;55635;50.264;11.918;2022-11-12T02:02:42;10.32;;;7.75;;
40945;SDS011;55635;50.264;11.918;2022-11-12T02:05:48;9.82;;;7.68;;
40945;SDS011;55635;50.264;11.918;2022-11-12T02:09:00;10.32;;;7.15;;
40945;SDS011;55635;50.264;11.918;2022-11-12T02:11:59;9.85;;;7.50;;
40945;SDS011;55635;50.264;11.918;2022-11-12T02:14:59;11.38;;;7.90;;
40945;SDS011;55635;50.264;11.918;2022-11-12T02:17:59;9.15;;;6.70;;
40945;SDS011;55635;50.264;11.918;2022-11-12T02:21:06;8.95;;;6.95;;
40945;SDS011;55635;50.264;11.918;2022-11-12T02:27:12;9.52;;;7.10;;
40945;SDS011;55635;50.264;11.918;2022-11-12T02:30:12;12.25;;;7.68;;
40945;SDS011;55635;50.264;11.918;2022-11-12T02:33:11;9.77;;;7.50;;
40945;SDS011;55635;50.264;11.918;2022-11-12T02:36:11;10.07;;;7.05;;
40945;SDS011;55635;50.264;11.918;2022-11-12T02:39:11;11.50;;;7.22;;
40945;SDS011;55635;50.264;11.918;2022-11-12T02:45:10;9.60;;;7.38;;
40945;SDS011;55635;50.264;11.918;2022-11-12T02:48:09;8.98;;;6.95;;
40945;SDS011;55635;50.264;11.918;2022-11-12T02:51:09;10.35;;;7.20;;
40945;SDS011;55635;50.264;11.918;2022-11-12T02:54:08;10.23;;;7.47;;
40945;SDS011;55635;50.264;11.918;2022-11-12T02:57:08;9.93;;;7.05;;
40945;SDS011;55635;50.264;11.918;2022-11-12T03:00:11;10.32;;;7.88;;
40945;SDS011;55635;50.264;11.918;2022-11-12T03:03:11;10.73;;;7.70;;
40945;SDS011;55635;50.264;11.918;2022-11-12T03:06:11;8.40;;;6.43;;
40945;SDS011;55635;50.264;11.918;2022-11-12T03:09:10;11.20;;;7.93;;
40945;SDS011;55635;50.264;11.918;2022-11-12T03:12:10;9.68;;;7.45;;
40945;SDS011;55635;50.264;11.918;2022-11-12T03:15:10;11.40;;;8.02;;
40945;SDS011;55635;50.264;11.918;2022-11-12T03:18:09;10.80;;;7.85;;
40945;SDS011;55635;50.264;11.918;2022-11-12T03:21:08;11.02;;;7.78;;
40945;SDS011;55635;50.264;11.918;2022-11-12T03:24:08;9.52;;;7.82;;
40945;SDS011;55635;50.264;11.918;2022-11-12T03:27:07;10.35;;;7.40;;
40945;SDS011;55635;50.264;11.918;2022-11-12T03:30:07;10.55;;;7.85;;
40945;SDS011;55635;50.264;11.918;2022-11-12T03:33:08;8.90;;;7.00;;
40945;SDS011;55635;50.264;11.918;2022-11-12T03:36:10;9.27;;;6.88;;
40945;SDS011;55635;50.264;11.918;2022-11-12T03:39:10;10.27;;;7.50;;
40945;SDS011;55635;50.264;11.918;2022-11-12T03:42:10;10.38;;;7.50;;
40945;SDS011;55635;50.264;11.918;2022-11-12T03:45:09;10.60;;;8.00;;
40945;SDS011;55635;50.264;11.918;2022-11-12T03:48:08;10.45;;;7.50;;
40945;SDS011;55635;50.264;11.918;2022-11-12T03:51:08;11.32;;;8.00;;
40945;SDS011;55635;50.264;11.918;2022-11-12T03:54:10;9.35;;;6.50;;
40945;SDS011;55635;50.264;11.918;2022-11-12T03:57:09;9.80;;;6.70;;
40945;SDS011;55635;50.264;11.918;2022-11-12T04:00:10;9.00;;;7.13;;
40945;SDS011;55635;50.264;11.918;2022-11-12T04:03:11;10.35;;;6.80;;
40945;SDS011;55635;50.264;11.918;2022-11-12T04:06:10;7.72;;;5.82;;
40945;SDS011;55635;50.264;11.918;2022-11-12T04:09:29;7.65;;;6.10;;
40945;SDS011;55635;50.264;11.918;2022-11-12T04:12:29;11.32;;;7.43;;
40945;SDS011;55635;50.264;11.918;2022-11-12T04:15:47;8.07;;;6.18;;
40945;SDS011;55635;50.264;11.918;2022-11-12T04:19:08;9.77;;;7.57;;
40945;SDS011;55635;50.264;11.918;2022-11-12T04:22:28;10.07;;;6.30;;
40945;SDS011;55635;50.264;11.918;2022-11-12T04:25:28;8.88;;;6.53;;
40945;SDS011;55635;50.264;11.918;2022-11-12T04:28:46;9.23;;;7.25;;
40945;SDS011;55635;50.264;11.918;2022-11-12T04:32:05;11.80;;;8.30;;
40945;SDS011;55635;50.264;11.918;2022-11-12T04:35:05;13.55;;;9.15;;
40945;SDS011;55635;50.264;11.918;2022-11-12T04:38:07;13.32;;;8.73;;
40945;SDS011;55635;50.264;11.918;2022-11-12T04:41:07;11.57;;;8.88;;
40945;SDS011;55635;50.264;11.918;2022-11-12T04:44:25;11.02;;;7.70;;
40945;SDS011;55635;50.264;11.918;2022-11-12T04:47:43;7.97;;;6.28;;
40945;SDS011;55635;50.264;11.918;2022-11-12T04:50:44;10.43;;;7.57;;
40945;SDS011;55635;50.264;11.918;2022-11-12T04:53:48;13.68;;;9.35;;
40945;SDS011;55635;50.264;11.918;2022-11-12T04:56:48;11.93;;;9.32;;
40945;SDS011;55635;50.264;11.918;2022-11-12T04:59:47;12.27;;;7.63;;
40945;SDS011;55635;50.264;11.918;2022-11-12T05:02:48;11.32;;;7.45;;
40945;SDS011;55635;50.264;11.918;2022-11-12T05:05:47;10.20;;;7.15;;
40945;SDS011;55635;50.264;11.918;2022-11-12T05:08:47;7.53;;;6.18;;
40945;SDS011;55635;50.264;11.918;2022-11-12T05:11:46;8.48;;;6.70;;
40945;SDS011;55635;50.264;11.918;2022-11-12T05:14:46;10.70;;;7.13;;
40945;SDS011;55635;50.264;11.918;2022-11-12T05:17:45;9.82;;;7.35;;
40945;SDS011;55635;50.264;11.918;2022-11-12T05:20:45;13.23;;;8.30;;
40945;SDS011;55635;50.264;11.918;2022-11-12T05:23:44;9.55;;;7.28;;
40945;SDS011;55635;50.264;11.918;2022-11-12T05:26:44;9.70;;;7.57;;
40945;SDS011;55635;50.264;11.918;2022-11-12T05:29:43;11.57;;;7.82;;
40945;SDS011;55635;50.264;11.918;2022-11-12T05:32:43;11.30;;;7.85;;
40945;SDS011;55635;50.264;11.918;2022-11-12T05:35:42;11.35;;;7.68;;
40945;SDS011;55635;50.264;11.918;2022-11-12T05:38:42;12.48;;;7.45;;
40945;SDS011;55635;50.264;11.918;2022-11-12T05:44:41;9.93;;;6.82;;
40945;SDS011;55635;50.264;11.918;2022-11-12T05:47:40;14.32;;;9.15;;
40945;SDS011;55635;50.264;11.918;2022-11-12T05:50:40;11.73;;;7.93;;
40945;SDS011;55635;50.264;11.918;2022-11-12T05:53:40;15.25;;;8.70;;
40945;SDS011;55635;50.264;11.918;2022-11-12T05:56:40;12.40;;;8.60;;
40945;SDS011;55635;50.264;11.918;2022-11-12T05:59:39;17.80;;;10.18;;
40945;SDS011;55635;50.264;11.918;2022-11-12T06:02:39;14.05;;;7.93;;
40945;SDS011;55635;50.264;11.918;2022-11-12T06:05:38;19.58;;;9.77;;
40945;SDS011;55635;50.264;11.918;2022-11-12T06:08:38;13.73;;;9.20;;
40945;SDS011;55635;50.264;11.918;2022-11-12T06:11:37;16.90;;;8.85;;
40945;SDS011;55635;50.264;11.918;2022-11-12T06:14:37;15.70;;;8.32;;
40945;SDS011;55635;50.264;11.918;2022-11-12T06:17:37;13.63;;;8.07;;
40945;SDS011;55635;50.264;11.918;2022-11-12T06:23:36;13.15;;;7.53;;
40945;SDS011;55635;50.264;11.918;2022-11-12T06:26:36;13.40;;;8.45;;
40945;SDS011;55635;50.264;11.918;2022-11-12T06:29:36;12.00;;;7.80;;
40945;SDS011;55635;50.264;11.918;2022-11-12T06:32:36;15.98;;;7.93;;
40945;SDS011;55635;50.264;11.918;2022-11-12T06:35:35;15.23;;;8.63;;
40945;SDS011;55635;50.264;11.918;2022-11-12T06:38:35;12.73;;;7.82;;
40945;SDS011;55635;50.264;11.918;2022-11-12T06:41:36;12.20;;;7.50;;
40945;SDS011;55635;50.264;11.918;2022-11-12T06:44:36;16.55;;;8.93;;
40945;SDS011;55635;50.264;11.918;2022-11-12T06:47:35;16.17;;;8.73;;
40945;SDS011;55635;50.264;11.918;2022-11-12T06:50:35;34.15;;;17.30;;
40945;SDS011;55635;50.264;11.918;2022-11-12T06:53:34;30.00;;;14.23;;
40945;SDS011;55635;50.264;11.918;2022-11-12T06:56:34;14.60;;;9.13;;
40945;SDS011;55635;50.264;11.918;2022-11-12T06:59:33;11.23;;;7.72;;
40945;SDS011;55635;50.264;11.918;2022-11-12T07:02:33;10.02;;;6.80;;
40945;SDS011;55635;50.264;11.918;2022-11-12T07:05:34;11.60;;;8.10;;
40945;SDS011;55635;50.264;11.918;2022-11-12T07:08:36;12.48;;;7.82;;
40945;SDS011;55635;50.264;11.918;2022-11-12T07:11:36;15.27;;;7.65;;
40945;SDS011;55635;50.264;11.918;2022-11-12T07:14:35;12.07;;;7.53;;
40945;SDS011;55635;50.264;11.918;2022-11-12T07:17:35;10.88;;;7.43;;
40945;SDS011;55635;50.264;11.918;2022-11-12T07:20:35;14.55;;;7.20;;
40945;SDS011;55635;50.264;11.918;2022-11-12T07:23:35;13.00;;;7.43;;
40945;SDS011;55635;50.264;11.918;2022-11-12T07:26:35;10.13;;;6.88;;
40945;SDS011;55635;50.264;11.918;2022-11-12T07:29:35;11.55;;;7.38;;
40945;SDS011;55635;50.264;11.918;2022-11-12T07:32:36;8.70;;;6.05;;
40945;SDS011;55635;50.264;11.918;2022-11-12T07:35:35;10.15;;;6.57;;
40945;SDS011;55635;50.264;11.918;2022-11-12T07:38:36;8.40;;;5.47;;
40945;SDS011;55635;50.264;11.918;2022-11-12T07:41:38;7.38;;;5.93;;
40945;SDS011;55635;50.264;11.918;2022-11-12T07:44:37;8.82;;;6.00;;
40945;SDS011;55635;50.264;11.918;2022-11-12T07:47:37;9.02;;;6.30;;
40945;SDS011;55635;50.264;11.918;2022-11-12T07:50:36;7.47;;;5.80;;
40945;SDS011;55635;50.264;11.918;2022-11-12T07:53:36;7.32;;;5.53;;
40945;SDS011;55635;50.264;11.918;2022-11-12T07:56:35;8.27;;;6.22;;
40945;SDS011;55635;50.264;11.918;2022-11-12T07:59:35;6.68;;;5.05;;
40945;SDS011;55635;50.264;11.918;2022-11-12T08:02:34;6.47;;;5.65;;
40945;SDS011;55635;50.264;11.918;2022-11-12T08:05:34;9.93;;;5.38;;
40945;SDS011;55635;50.264;11.918;2022-11-12T08:08:33;6.97;;;5.03;;
40945;SDS011;55635;50.264;11.918;2022-11-12T08:11:33;6.10;;;5.10;;
40945;SDS011;55635;50.264;11.918;2022-11-12T08:14:33;6.47;;;5.65;;
40945;SDS011;55635;50.264;11.918;2022-11-12T08:17:36;6.90;;;5.22;;
40945;SDS011;55635;50.264;11.918;2022-11-12T08:20:37;6.88;;;5.55;;
40945;SDS011;55635;50.264;11.918;2022-11-12T08:23:36;7.63;;;5.25;;
40945;SDS011;55635;50.264;11.918;2022-11-12T08:26:36;5.85;;;5.10;;
40945;SDS011;55635;50.264;11.918;2022-11-12T08:29:36;6.72;;;5.43;;
40945;SDS011;55635;50.264;11.918;2022-11-12T08:32:35;5.03;;;4.53;;
40945;SDS011;55635;50.264;11.918;2022-11-12T08:35:36;4.95;;;4.50;;
40945;SDS011;55635;50.264;11.918;2022-11-12T08:38:36;7.07;;;5.57;;
40945;SDS011;55635;50.264;11.918;2022-11-12T08:41:37;7.15;;;5.03;;
40945;SDS011;55635;50.264;11.918;2022-11-12T08:44:36;7.10;;;5.40;;
40945;SDS011;55635;50.264;11.918;2022-11-12T08:47:36;7.57;;;6.15;;
40945;SDS011;55635;50.264;11.918;2022-11-12T08:50:36;10.50;;;5.43;;
40945;SDS011;55635;50.264;11.918;2022-11-12T08:53:35;8.15;;;5.43;;
40945;SDS011;55635;50.264;11.918;2022-11-12T08:56:35;6.43;;;5.22;;
40945;SDS011;55635;50.264;11.918;2022-11-12T08:59:34;5.00;;;4.13;;
40945;SDS011;55635;50.264;11.918;2022-11-12T09:02:34;4.25;;;3.90;;
40945;SDS011;55635;50.264;11.918;2022-11-12T09:05:34;4.55;;;4.15;;
40945;SDS011;55635;50.264;11.918;2022-11-12T09:11:34;3.60;;;3.40;;
40945;SDS011;55635;50.264;11.918;2022-11-12T09:14:33;3.30;;;3.00;;
40945;SDS011;55635;50.264;11.918;2022-11-12T09:17:33;3.80;;;3.47;;
40945;SDS011;55635;50.264;11.918;2022-11-12T09:20:32;4.15;;;3.80;;
40945;SDS011;55635;50.264;11.918;2022-11-12T09:26:33;3.30;;;3.08;;
40945;SDS011;55635;50.264;11.918;2022-11-12T09:29:32;3.22;;;3.03;;
40945;SDS011;55635;50.264;11.918;2022-11-12T09:32:32;3.60;;;3.30;;
40945;SDS011;55635;50.264;11.918;2022-11-12T09:35:32;5.05;;;4.22;;
40945;SDS011;55635;50.264;11.918;2022-11-12T09:38:31;4.30;;;3.90;;
40945;SDS011;55635;50.264;11.918;2022-11-12T09:41:31;6.45;;;4.88;;
40945;SDS011;55635;50.264;11.918;2022-11-12T09:44:35;5.10;;;4.60;;
40945;SDS011;55635;50.264;11.918;2022-11-12T09:50:55;4.07;;;3.78;;
40945;SDS011;55635;50.264;11.918;2022-11-12T09:54:31;3.80;;;3.50;;
40945;SDS011;55635;50.264;11.918;2022-11-12T09:57:33;5.57;;;5.03;;
40945;SDS011;55635;50.264;11.918;2022-11-12T10:00:32;4.95;;;4.40;;
40945;SDS011;55635;50.264;11.918;2022-11-12T10:03:36;5.10;;;4.60;;
40945;SDS011;55635;50.264;11.918;2022-11-12T10:10:37;6.65;;;4.80;;
40945;SDS011;55635;50.264;11.918;2022-11-12T10:14:19;4.78;;;4.20;;
40945;SDS011;55635;50.264;11.918;2022-11-12T10:21:35;5.25;;;4.57;;
40945;SDS011;55635;50.264;11.918;2022-11-12T10:24:43;4.85;;;3.95;;
40945;SDS011;55635;50.264;11.918;2022-11-12T10:27:44;4.15;;;3.75;;
40945;SDS011;55635;50.264;11.918;2022-11-12T10:30:44;4.47;;;4.07;;
40945;SDS011;55635;50.264;11.918;2022-11-12T10:33:44;4.20;;;3.90;;
40945;SDS011;55635;50.264;11.918;2022-11-12T10:36:45;4.90;;;3.90;;
40945;SDS011;55635;50.264;11.918;2022-11-12T10:39:51;4.78;;;4.20;;
40945;SDS011;55635;50.264;11.918;2022-11-12T10:46:17;4.38;;;3.97;;
40945;SDS011;55635;50.264;11.918;2022-11-12T10:49:34;4.00;;;3.58;;
40945;SDS011;55635;50.264;11.918;2022-11-12T10:52:34;5.32;;;3.40;;
40945;SDS011;55635;50.264;11.918;2022-11-12T10:55:35;3.92;;;2.97;;
40945;SDS011;55635;50.264;11.918;2022-11-12T10:59:08;3.88;;;3.58;;
40945;SDS011;55635;50.264;11.918;2022-11-12T11:02:16;3.35;;;3.08;;
40945;SDS011;55635;50.264;11.918;2022-11-12T11:08:46;3.05;;;2.72;;
40945;SDS011;55635;50.264;11.918;2022-11-12T11:11:49;3.33;;;2.85;;
40945;SDS011;55635;50.264;11.918;2022-11-12T11:15:04;2.85;;;2.58;;
40945;SDS011;55635;50.264;11.918;2022-11-12T11:18:17;2.33;;;2.13;;
40945;SDS011;55635;50.264;11.918;2022-11-12T11:28:38;2.25;;;1.92;;
40945;SDS011;55635;50.264;11.918;2022-11-12T11:32:06;1.90;;;1.73;;
40945;SDS011;55635;50.264;11.918;2022-11-12T11:36:08;3.83;;;1.73;;
40945;SDS011;55635;50.264;11.918;2022-11-12T11:39:21;1.90;;;1.80;;
40945;SDS011;55635;50.264;11.918;2022-11-12T11:42:41;1.77;;;1.67;;
40945;SDS011;55635;50.264;11.918;2022-11-12T11:53:26;2.13;;;1.93;;
40945;SDS011;55635;50.264;11.918;2022-11-12T11:56:42;2.15;;;2.00;;
40945;SDS011;55635;50.264;11.918;2022-11-12T12:07:36;1.80;;;1.70;;
40945;SDS011;55635;50.264;11.918;2022-11-12T12:10:43;1.80;;;1.70;;
40945;SDS011;55635;50.264;11.918;2022-11-12T12:23:53;2.92;;;1.50;;
40945;SDS011;55635;50.264;11.918;2022-11-12T12:27:01;1.63;;;1.50;;
40945;SDS011;55635;50.264;11.918;2022-11-12T12:30:19;2.25;;;1.40;;
40945;SDS011;55635;50.264;11.918;2022-11-12T12:33:27;1.73;;;1.63;;
40945;SDS011;55635;50.264;11.918;2022-11-12T12:36:35;1.50;;;1.40;;
40945;SDS011;55635;50.264;11.918;2022-11-12T12:43:19;1.58;;;1.48;;
40945;SDS011;55635;50.264;11.918;2022-11-12T12:46:38;1.42;;;1.33;;
40945;SDS011;55635;50.264;11.918;2022-11-12T12:49:49;1.50;;;1.23;;
40945;SDS011;55635;50.264;11.918;2022-11-12T12:59:22;1.65;;;1.55;;
40945;SDS011;55635;50.264;11.918;2022-11-12T13:02:22;2.10;;;1.90;;
40945;SDS011;55635;50.264;11.918;2022-11-12T13:08:26;1.38;;;1.27;;
40945;SDS011;55635;50.264;11.918;2022-11-12T13:15:10;1.95;;;1.42;;
40945;SDS011;55635;50.264;11.918;2022-11-12T13:21:38;3.53;;;1.85;;
40945;SDS011;55635;50.264;11.918;2022-11-12T13:25:45;5.15;;;1.80;;
40945;SDS011;55635;50.264;11.918;2022-11-12T13:28:14;1.80;;;1.70;;
40945;SDS011;55635;50.264;11.918;2022-11-12T13:31:24;2.00;;;1.80;;
40945;SDS011;55635;50.264;11.918;2022-11-12T13:34:30;2.45;;;1.50;;
40945;SDS011;55635;50.264;11.918;2022-11-12T13:37:31;2.17;;;1.50;;
40945;SDS011;55635;50.264;11.918;2022-11-12T13:44:40;3.72;;;1.50;;
40945;SDS011;55635;50.264;11.918;2022-11-12T13:47:40;3.60;;;1.42;;
40945;SDS011;55635;50.264;11.918;2022-11-12T13:50:40;2.05;;;1.75;;
40945;SDS011;55635;50.264;11.918;2022-11-12T13:53:42;2.42;;;1.23;;
40945;SDS011;55635;50.264;11.918;2022-11-12T13:59:41;2.92;;;1.67;;
40945;SDS011;55635;50.264;11.918;2022-11-12T14:02:40;1.33;;;1.15;;
40945;SDS011;55635;50.264;11.918;2022-11-12T14:05:45;1.08;;;0.90;;
40945;SDS011;55635;50.264;11.918;2022-11-12T14:22:52;1.73;;;1.27;;
40945;SDS011;55635;50.264;11.918;2022-11-12T14:25:53;1.30;;;1.20;;
40945;SDS011;55635;50.264;11.918;2022-11-12T14:28:54;2.20;;;1.58;;
40945;SDS011;55635;50.264;11.918;2022-11-12T14:32:01;2.13;;;1.90;;
40945;SDS011;55635;50.264;11.918;2022-11-12T14:35:15;2.05;;;1.67;;
40945;SDS011;55635;50.264;11.918;2022-11-12T14:41:41;1.58;;;1.48;;
40945;SDS011;55635;50.264;11.918;2022-11-12T14:44:43;1.58;;;1.48;;
40945;SDS011;55635;50.264;11.918;2022-11-12T14:47:43;1.67;;;1.50;;
40945;SDS011;55635;50.264;11.918;2022-11-12T14:50:46;1.00;;;0.93;;
40945;SDS011;55635;50.264;11.918;2022-11-12T14:54:00;2.08;;;1.38;;
40945;SDS011;55635;50.264;11.918;2022-11-12T14:57:05;1.52;;;1.20;;
40945;SDS011;55635;50.264;11.918;2022-11-12T15:00:16;2.03;;;1.50;;
40945;SDS011;55635;50.264;11.918;2022-11-12T15:03:30;1.45;;;1.30;;
40945;SDS011;55635;50.264;11.918;2022-11-12T15:06:30;3.20;;;1.27;;
40945;SDS011;55635;50.264;11.918;2022-11-12T15:09:32;3.25;;;1.17;;
40945;SDS011;55635;50.264;11.918;2022-11-12T15:12:34;1.40;;;1.30;;
40945;SDS011;55635;50.264;11.918;2022-11-12T15:15:34;1.45;;;1.30;;
40945;SDS011;55635;50.264;11.918;2022-11-12T15:18:37;1.95;;;1.45;;
40945;SDS011;55635;50.264;11.918;2022-11-12T15:21:43;2.85;;;1.52;;
40945;SDS011;55635;50.264;11.918;2022-11-12T15:24:45;4.07;;;1.45;;
40945;SDS011;55635;50.264;11.918;2022-11-12T15:27:46;1.65;;;1.48;;
40945;SDS011;55635;50.264;11.918;2022-11-12T15:34:29;2.00;;;1.80;;
40945;SDS011;55635;50.264;11.918;2022-11-12T15:37:43;4.20;;;2.85;;
40945;SDS011;55635;50.264;11.918;2022-11-12T15:40:43;3.13;;;2.30;;
40945;SDS011;55635;50.264;11.918;2022-11-12T15:43:44;3.60;;;2.83;;
40945;SDS011;55635;50.264;11.918;2022-11-12T15:46:43;8.00;;;3.88;;
40945;SDS011;55635;50.264;11.918;2022-11-12T15:49:49;2.60;;;2.40;;
40945;SDS011;55635;50.264;11.918;2022-11-12T15:52:51;5.38;;;4.00;;
40945;SDS011;55635;50.264;11.918;2022-11-12T15:55:52;4.85;;;3.47;;
40945;SDS011;55635;50.264;11.918;2022-11-12T15:58:52;11.80;;;8.60;;
40945;SDS011;55635;50.264;11.918;2022-11-12T16:01:51;15.23;;;10.02;;
40945;SDS011;55635;50.264;11.918;2022-11-12T16:04:51;35.40;;;21.90;;
40945;SDS011;55635;50.264;11.918;2022-11-12T16:07:51;23.50;;;14.90;;
40945;SDS011;55635;50.264;11.918;2022-11-12T16:10:50;24.25;;;15.65;;
40945;SDS011;55635;50.264;11.918;2022-11-12T16:13:50;23.40;;;16.40;;
40945;SDS011;55635;50.264;11.918;2022-11-12T16:16:49;17.92;;;13.05;;
40945;SDS011;55635;50.264;11.918;2022-11-12T16:19:49;22.30;;;14.38;;
40945;SDS011;55635;50.264;11.918;2022-11-12T16:22:49;21.98;;;14.60;;
40945;SDS011;55635;50.264;11.918;2022-11-12T16:25:49;18.85;;;12.93;;
40945;SDS011;55635;50.264;11.918;2022-11-12T16:31:48;25.55;;;16.98;;
40945;SDS011;55635;50.264;11.918;2022-11-12T16:34:48;30.67;;;19.90;;
40945;SDS011;55635;50.264;11.918;2022-11-12T16:37:47;33.95;;;23.50;;
40945;SDS011;55635;50.264;11.918;2022-11-12T16:40:48;28.50;;;20.05;;
40945;SDS011;55635;50.264;11.918;2022-11-12T16:43:47;22.73;;;15.85;;
40945;SDS011;55635;50.264;11.918;2022-11-12T16:46:48;35.92;;;23.38;;
40945;SDS011;55635;50.264;11.918;2022-11-12T16:49:47;20.05;;;13.80;;
40945;SDS011;55635;50.264;11.918;2022-11-12T16:52:47;45.70;;;33.88;;
40945;SDS011;55635;50.264;11.918;2022-11-12T16:55:48;42.35;;;28.98;;
40945;SDS011;55635;50.264;11.918;2022-11-12T16:58:48;22.35;;;15.30;;
40945;SDS011;55635;50.264;11.918;2022-11-12T17:01:48;24.83;;;17.38;;
40945;SDS011;55635;50.264;11.918;2022-11-12T17:04:47;24.23;;;16.02;;
40945;SDS011;55635;50.264;11.918;2022-11-12T17:07:47;30.25;;;18.75;;
40945;SDS011;55635;50.264;11.918;2022-11-12T17:10:48;26.25;;;17.58;;
40945;SDS011;55635;50.264;11.918;2022-11-12T17:13:48;29.25;;;20.42;;
40945;SDS011;55635;50.264;11.918;2022-11-12T17:16:48;32.47;;;21.00;;
40945;SDS011;55635;50.264;11.918;2022-11-12T17:19:50;30.83;;;20.10;;
40945;SDS011;55635;50.264;11.918;2022-11-12T17:22:50;26.27;;;18.75;;
40945;SDS011;55635;50.264;11.918;2022-11-12T17:25:58;28.95;;;19.08;;
40945;SDS011;55635;50.264;11.918;2022-11-12T17:28:59;28.52;;;18.38;;
40945;SDS011;55635;50.264;11.918;2022-11-12T17:31:58;26.92;;;17.60;;
40945;SDS011;55635;50.264;11.918;2022-11-12T17:34:58;29.70;;;18.98;;
40945;SDS011;55635;50.264;11.918;2022-11-12T17:37:57;35.03;;;19.92;;
40945;SDS011;55635;50.264;11.918;2022-11-12T17:40:57;67.65;;;30.33;;
40945;SDS011;55635;50.264;11.918;2022-11-12T17:43:58;77.25;;;33.10;;
40945;SDS011;55635;50.264;11.918;2022-11-12T17:46:58;60.45;;;30.48;;
40945;SDS011;55635;50.264;11.918;2022-11-12T17:49:59;32.53;;;20.42;;
40945;SDS011;55635;50.264;11.918;2022-11-12T17:52:58;36.38;;;20.33;;
40945;SDS011;55635;50.264;11.918;2022-11-12T17:55:58;32.97;;;19.60;;
40945;SDS011;55635;50.264;11.918;2022-11-12T17:59:00;27.02;;;16.15;;
40945;SDS011;55635;50.264;11.918;2022-11-12T18:02:00;23.77;;;15.93;;
40945;SDS011;55635;50.264;11.918;2022-11-12T18:05:00;24.20;;;15.75;;
40945;SDS011;55635;50.264;11.918;2022-11-12T18:07:59;34.40;;;21.42;;
40945;SDS011;55635;50.264;11.918;2022-11-12T18:11:00;37.47;;;21.55;;
40945;SDS011;55635;50.264;11.918;2022-11-12T18:14:04;26.42;;;17.58;;
40945;SDS011;55635;50.264;11.918;2022-11-12T18:17:05;29.83;;;18.77;;
40945;SDS011;55635;50.264;11.918;2022-11-12T18:20:05;26.70;;;15.75;;
40945;SDS011;55635;50.264;11.918;2022-11-12T18:23:05;30.08;;;17.58;;
40945;SDS011;55635;50.264;11.918;2022-11-12T18:26:05;17.38;;;11.25;;
40945;SDS011;55635;50.264;11.918;2022-11-12T18:29:05;16.90;;;11.38;;
40945;SDS011;55635;50.264;11.918;2022-11-12T18:32:05;18.83;;;12.73;;
40945;SDS011;55635;50.264;11.918;2022-11-12T18:35:05;18.63;;;11.95;;
40945;SDS011;55635;50.264;11.918;2022-11-12T18:41:11;17.98;;;12.30;;
40945;SDS011;55635;50.264;11.918;2022-11-12T18:44:13;18.30;;;13.07;;
40945;SDS011;55635;50.264;11.918;2022-11-12T18:47:12;20.90;;;13.18;;
40945;SDS011;55635;50.264;11.918;2022-11-12T18:50:12;14.60;;;10.45;;
40945;SDS011;55635;50.264;11.918;2022-11-12T18:56:12;19.63;;;11.55;;
40945;SDS011;55635;50.264;11.918;2022-11-12T18:59:17;16.33;;;10.95;;
40945;SDS011;55635;50.264;11.918;2022-11-12T19:02:16;21.73;;;13.55;;
40945;SDS011;55635;50.264;11.918;2022-11-12T19:05:16;25.38;;;14.65;;
40945;SDS011;55635;50.264;11.918;2022-11-12T19:08:18;31.00;;;17.73;;
40945;SDS011;55635;50.264;11.918;2022-11-12T19:11:17;22.92;;;15.32;;
40945;SDS011;55635;50.264;11.918;2022-11-12T19:14:19;21.88;;;14.05;;
40945;SDS011;55635;50.264;11.918;2022-11-12T19:17:18;18.17;;;12.02;;
40945;SDS011;55635;50.264;11.918;2022-11-12T19:20:17;45.03;;;24.48;;
40945;SDS011;55635;50.264;11.918;2022-11-12T19:23:17;26.30;;;16.67;;
40945;SDS011;55635;50.264;11.918;2022-11-12T19:29:17;28.88;;;18.30;;
40945;SDS011;55635;50.264;11.918;2022-11-12T19:32:16;60.05;;;31.63;;
40945;SDS011;55635;50.264;11.918;2022-11-12T19:35:16;52.05;;;24.58;;
40945;SDS011;55635;50.264;11.918;2022-11-12T19:41:15;36.33;;;18.57;;
40945;SDS011;55635;50.264;11.918;2022-11-12T19:44:15;33.47;;;18.23;;
40945;SDS011;55635;50.264;11.918;2022-11-12T19:47:15;52.92;;;28.00;;
40945;SDS011;55635;50.264;11.918;2022-11-12T19:50:17;39.85;;;23.08;;
40945;SDS011;55635;50.264;11.918;2022-11-12T19:53:16;45.92;;;22.52;;
40945;SDS011;55635;50.264;11.918;2022-11-12T19:56:16;38.30;;;17.23;;
40945;SDS011;55635;50.264;11.918;2022-11-12T19:59:16;25.60;;;14.20;;
40945;SDS011;55635;50.264;11.918;2022-11-12T20:02:16;23.13;;;14.65;;
40945;SDS011;55635;50.264;11.918;2022-11-12T20:05:16;22.23;;;13.80;;